KTEXKFMN

Guest
Details From KTEX - Telluride Rgnl
To KFMN - FOUR CORNERS RGNL
Flight Number -
Tags None
Created
Modified
Stats Distance 74 nm / 138 km
Max Altitude 3,600 ft / 1,097 m
Waypoints 3
Social Downloads 0
Likes 0
Share VATSIM

Download

Looking for another format? Having issues loading an existing format? Contact us
Advertisement - Login to hide

Notes

None

Route

KTEX RIZAL KFMN

ID Type Via Altitude Latitude Longitude Leg Dist Tot Dist Heading (true) Name
O KTEX APT - 0 ft / 0 m 37.95381˚ -107.90874˚ - 0 nm - Telluride Rgnl
RIZAL FIX - 3,600 ft / 1,097 m 37.02052˚ -108.17833˚ 57 nm 57 nm 193° / 193° -
O KFMN APT - 0 ft / 0 m 36.74277˚ -108.22977˚ 16 nm 74 nm 188° / 188° FOUR CORNERS RGNL

Altitude Profile

Advertisement - Login to hide

KTEX

Details ICAO KTEX (TEX)
Name Telluride Rgnl
Region United States
Timezone America/Denver (UTC-7.0)
Stats Elevation 9,078 ft / 2,767 m (AMSL)
Location 37.953812° -107.908742°
Runways 1
Magnetic Variation 9.420° E

METAR

KTEX 161835Z AUTO 27010KT 10SM CLR 03/M18 A2984 RMK AO2 T00271178

Decode

TAF

KTEX 161731Z 1618/1718 VRB03KT P6SM SCT130 BKN200 FM162000 26008KT P6SM BKN130 FM170200 13005KT P6SM BKN110 FM170800 14004KT P6SM FEW130 SCT200 FM171200 12004KT P6SM SCT100 BKN130

Decode

Departure Runways

ID Width Length Bearing (true) Bearing (mag) Surface Threshold Offset Overrun Length
09 98 ft / 30 m 7,095 ft / 2,163 m 104.96° 95.54° Asphalt 200 ft / 61 m 400 ft / 122 m
27 98 ft / 30 m 7,095 ft / 2,163 m 284.98° 275.56° Asphalt 200 ft / 61 m 400 ft / 122 m

KFMN

Details ICAO KFMN (FMN)
Name FOUR CORNERS RGNL
Region United States
Timezone America/Denver (UTC-7.0)
Stats Elevation 5,505 ft / 1,678 m (AMSL)
Location 36.742770° -108.229772°
Runways 3
Magnetic Variation 9.413° E

METAR

KFMN 161753Z 11006KT 10SM CLR 02/M09 A2985 RMK AO2 SLP131 T00171094 10017 21094 57019 $

Decode

TAF

KFMN 161722Z 1618/1718 10005KT P6SM OVC200 FM162000 26006KT P6SM BKN200 FM170600 07005KT P6SM OVC120

Decode

Destination Runways

ID Width Length Bearing (true) Bearing (mag) Surface Threshold Offset Overrun Length
05 150 ft / 46 m 6,490 ft / 1,978 m 64.56° 55.15° Asphalt 0 ft / 0 m 0 ft / 0 m
07 100 ft / 30 m 6,689 ft / 2,039 m 88.29° 78.88° Asphalt 240 ft / 73 m 62 ft / 19 m
11 100 ft / 30 m 2,780 ft / 847 m 122.80° 113.39° Dirt 0 ft / 0 m 0 ft / 0 m
23 150 ft / 46 m 6,490 ft / 1,978 m 244.57° 235.16° Asphalt 125 ft / 38 m 0 ft / 0 m
25 100 ft / 30 m 6,689 ft / 2,039 m 268.31° 258.90° Asphalt 187 ft / 57 m 49 ft / 15 m
29 100 ft / 30 m 2,780 ft / 847 m 302.81° 293.40° Dirt 0 ft / 0 m 0 ft / 0 m

Approach Navaids

Runway Type Ident Frequency Range Bearing (true) Bearing (mag) Slope Elevation
25 Localiser IFMN 111.90 MHz 18 nm / 33 km 268.29° 258.88° - 5,473 ft / 1,668 m (AMSL)
25 Glidescope IFMN 111.90 MHz 10 nm / 19 km 268.30° 258.89° 3.00° 5,505 ft / 1,678 m (AMSL)
25 DME IFMN 111.90 MHz 18 nm / 33 km - - - 5,488 ft / 1,673 m (AMSL)

Popular Alternatives